sensor_id;sensor_type;location;lat;lon;timestamp;P1;durP1;ratioP1;P2;durP2;ratioP2
28170;SDS011;15458;53.346;-1.688;2023-05-07T00:01:53;11.48;;;7.30;;
28170;SDS011;15458;53.346;-1.688;2023-05-07T00:04:19;14.02;;;8.30;;
28170;SDS011;15458;53.346;-1.688;2023-05-07T00:06:45;12.57;;;9.00;;
28170;SDS011;15458;53.346;-1.688;2023-05-07T00:09:11;14.27;;;9.90;;
28170;SDS011;15458;53.346;-1.688;2023-05-07T00:11:36;16.58;;;10.48;;
28170;SDS011;15458;53.346;-1.688;2023-05-07T00:14:02;14.98;;;10.40;;
28170;SDS011;15458;53.346;-1.688;2023-05-07T00:16:28;16.42;;;10.60;;
28170;SDS011;15458;53.346;-1.688;2023-05-07T00:18:53;17.45;;;10.73;;
28170;SDS011;15458;53.346;-1.688;2023-05-07T00:21:19;11.50;;;7.75;;
28170;SDS011;15458;53.346;-1.688;2023-05-07T00:23:46;10.20;;;6.63;;
28170;SDS011;15458;53.346;-1.688;2023-05-07T00:26:14;9.10;;;5.18;;
28170;SDS011;15458;53.346;-1.688;2023-05-07T00:28:40;9.48;;;5.50;;
28170;SDS011;15458;53.346;-1.688;2023-05-07T00:31:08;9.68;;;5.68;;
28170;SDS011;15458;53.346;-1.688;2023-05-07T00:33:35;6.40;;;5.35;;
28170;SDS011;15458;53.346;-1.688;2023-05-07T00:36:00;7.20;;;5.30;;
28170;SDS011;15458;53.346;-1.688;2023-05-07T00:38:26;10.40;;;6.03;;
28170;SDS011;15458;53.346;-1.688;2023-05-07T00:40:53;11.02;;;7.03;;
28170;SDS011;15458;53.346;-1.688;2023-05-07T00:43:19;12.18;;;8.10;;
28170;SDS011;15458;53.346;-1.688;2023-05-07T00:45:44;13.05;;;8.07;;
28170;SDS011;15458;53.346;-1.688;2023-05-07T00:48:10;10.98;;;7.63;;
28170;SDS011;15458;53.346;-1.688;2023-05-07T00:50:36;15.45;;;9.45;;
28170;SDS011;15458;53.346;-1.688;2023-05-07T00:53:02;17.95;;;10.18;;
28170;SDS011;15458;53.346;-1.688;2023-05-07T00:55:27;18.23;;;11.20;;
28170;SDS011;15458;53.346;-1.688;2023-05-07T00:57:53;20.23;;;12.10;;
28170;SDS011;15458;53.346;-1.688;2023-05-07T01:00:19;20.23;;;13.07;;
28170;SDS011;15458;53.346;-1.688;2023-05-07T01:02:45;20.30;;;10.50;;
28170;SDS011;15458;53.346;-1.688;2023-05-07T01:05:12;20.00;;;11.27;;
28170;SDS011;15458;53.346;-1.688;2023-05-07T01:07:41;18.60;;;11.88;;
28170;SDS011;15458;53.346;-1.688;2023-05-07T01:10:07;12.10;;;7.82;;
28170;SDS011;15458;53.346;-1.688;2023-05-07T01:12:35;9.80;;;6.45;;
28170;SDS011;15458;53.346;-1.688;2023-05-07T01:15:02;10.98;;;7.40;;
28170;SDS011;15458;53.346;-1.688;2023-05-07T01:17:29;13.57;;;7.45;;
28170;SDS011;15458;53.346;-1.688;2023-05-07T01:19:58;9.88;;;6.95;;
28170;SDS011;15458;53.346;-1.688;2023-05-07T01:22:31;11.52;;;7.40;;
28170;SDS011;15458;53.346;-1.688;2023-05-07T01:24:58;12.80;;;8.07;;
28170;SDS011;15458;53.346;-1.688;2023-05-07T01:27:24;12.73;;;8.27;;
28170;SDS011;15458;53.346;-1.688;2023-05-07T01:29:50;13.88;;;8.15;;
28170;SDS011;15458;53.346;-1.688;2023-05-07T01:32:16;15.15;;;8.48;;
28170;SDS011;15458;53.346;-1.688;2023-05-07T01:34:47;12.30;;;8.00;;
28170;SDS011;15458;53.346;-1.688;2023-05-07T01:37:14;10.98;;;8.10;;
28170;SDS011;15458;53.346;-1.688;2023-05-07T01:39:40;13.75;;;9.75;;
28170;SDS011;15458;53.346;-1.688;2023-05-07T01:42:10;16.00;;;10.07;;
28170;SDS011;15458;53.346;-1.688;2023-05-07T01:44:35;15.60;;;10.10;;
28170;SDS011;15458;53.346;-1.688;2023-05-07T01:47:02;14.75;;;9.88;;
28170;SDS011;15458;53.346;-1.688;2023-05-07T01:49:28;14.68;;;9.43;;
28170;SDS011;15458;53.346;-1.688;2023-05-07T01:51:55;16.83;;;9.93;;
28170;SDS011;15458;53.346;-1.688;2023-05-07T01:54:25;17.13;;;10.82;;
28170;SDS011;15458;53.346;-1.688;2023-05-07T01:56:52;19.83;;;12.40;;
28170;SDS011;15458;53.346;-1.688;2023-05-07T01:59:18;18.23;;;10.88;;
28170;SDS011;15458;53.346;-1.688;2023-05-07T02:01:44;20.23;;;11.90;;
28170;SDS011;15458;53.346;-1.688;2023-05-07T02:04:09;17.83;;;11.23;;
28170;SDS011;15458;53.346;-1.688;2023-05-07T02:06:35;20.83;;;11.63;;
28170;SDS011;15458;53.346;-1.688;2023-05-07T02:09:01;17.85;;;10.77;;
28170;SDS011;15458;53.346;-1.688;2023-05-07T02:11:26;16.70;;;10.23;;
28170;SDS011;15458;53.346;-1.688;2023-05-07T02:13:52;13.40;;;7.85;;
28170;SDS011;15458;53.346;-1.688;2023-05-07T02:16:18;11.43;;;7.25;;
28170;SDS011;15458;53.346;-1.688;2023-05-07T02:18:44;10.48;;;6.95;;
28170;SDS011;15458;53.346;-1.688;2023-05-07T02:21:10;12.02;;;6.53;;
28170;SDS011;15458;53.346;-1.688;2023-05-07T02:23:36;10.27;;;6.70;;
28170;SDS011;15458;53.346;-1.688;2023-05-07T02:26:01;12.02;;;7.43;;
28170;SDS011;15458;53.346;-1.688;2023-05-07T02:28:28;12.70;;;7.55;;
28170;SDS011;15458;53.346;-1.688;2023-05-07T02:30:54;12.43;;;7.75;;
28170;SDS011;15458;53.346;-1.688;2023-05-07T02:33:19;13.25;;;8.20;;
28170;SDS011;15458;53.346;-1.688;2023-05-07T02:35:45;14.05;;;8.68;;
28170;SDS011;15458;53.346;-1.688;2023-05-07T02:38:11;14.38;;;8.02;;
28170;SDS011;15458;53.346;-1.688;2023-05-07T02:40:36;12.10;;;8.32;;
28170;SDS011;15458;53.346;-1.688;2023-05-07T02:43:05;11.77;;;6.80;;
28170;SDS011;15458;53.346;-1.688;2023-05-07T02:45:31;9.35;;;6.78;;
28170;SDS011;15458;53.346;-1.688;2023-05-07T02:47:57;11.13;;;7.35;;
28170;SDS011;15458;53.346;-1.688;2023-05-07T02:50:23;9.15;;;6.38;;
28170;SDS011;15458;53.346;-1.688;2023-05-07T02:52:49;11.35;;;7.28;;
28170;SDS011;15458;53.346;-1.688;2023-05-07T02:55:15;12.30;;;7.97;;
28170;SDS011;15458;53.346;-1.688;2023-05-07T02:57:41;11.40;;;7.25;;
28170;SDS011;15458;53.346;-1.688;2023-05-07T03:00:16;10.07;;;7.50;;
28170;SDS011;15458;53.346;-1.688;2023-05-07T03:02:44;12.52;;;7.95;;
28170;SDS011;15458;53.346;-1.688;2023-05-07T03:05:10;10.90;;;7.28;;
28170;SDS011;15458;53.346;-1.688;2023-05-07T03:07:39;12.23;;;8.50;;
28170;SDS011;15458;53.346;-1.688;2023-05-07T03:10:06;14.45;;;8.95;;
28170;SDS011;15458;53.346;-1.688;2023-05-07T03:12:32;16.65;;;8.75;;
28170;SDS011;15458;53.346;-1.688;2023-05-07T03:14:57;15.07;;;8.55;;
28170;SDS011;15458;53.346;-1.688;2023-05-07T03:17:23;15.38;;;8.20;;
28170;SDS011;15458;53.346;-1.688;2023-05-07T03:19:49;13.57;;;8.85;;
28170;SDS011;15458;53.346;-1.688;2023-05-07T03:22:14;16.05;;;8.25;;
28170;SDS011;15458;53.346;-1.688;2023-05-07T03:24:40;12.40;;;7.85;;
28170;SDS011;15458;53.346;-1.688;2023-05-07T03:27:06;14.43;;;8.15;;
28170;SDS011;15458;53.346;-1.688;2023-05-07T03:29:32;15.10;;;8.40;;
28170;SDS011;15458;53.346;-1.688;2023-05-07T03:31:57;15.00;;;8.75;;
28170;SDS011;15458;53.346;-1.688;2023-05-07T03:34:23;14.10;;;8.73;;
28170;SDS011;15458;53.346;-1.688;2023-05-07T03:36:49;14.35;;;8.85;;
28170;SDS011;15458;53.346;-1.688;2023-05-07T03:39:14;14.23;;;8.23;;
28170;SDS011;15458;53.346;-1.688;2023-05-07T03:41:40;13.57;;;8.38;;
28170;SDS011;15458;53.346;-1.688;2023-05-07T03:44:06;15.20;;;8.20;;
28170;SDS011;15458;53.346;-1.688;2023-05-07T03:46:32;15.82;;;8.45;;
28170;SDS011;15458;53.346;-1.688;2023-05-07T03:48:58;14.20;;;9.60;;
28170;SDS011;15458;53.346;-1.688;2023-05-07T03:51:23;18.50;;;10.48;;
28170;SDS011;15458;53.346;-1.688;2023-05-07T03:53:50;17.38;;;10.63;;
28170;SDS011;15458;53.346;-1.688;2023-05-07T03:56:17;17.42;;;9.50;;
28170;SDS011;15458;53.346;-1.688;2023-05-07T03:58:44;14.35;;;9.48;;
28170;SDS011;15458;53.346;-1.688;2023-05-07T04:01:09;16.63;;;10.32;;
28170;SDS011;15458;53.346;-1.688;2023-05-07T04:03:36;13.82;;;8.60;;
28170;SDS011;15458;53.346;-1.688;2023-05-07T04:06:02;17.90;;;8.65;;
28170;SDS011;15458;53.346;-1.688;2023-05-07T04:08:27;21.58;;;10.85;;
28170;SDS011;15458;53.346;-1.688;2023-05-07T04:10:56;16.25;;;10.68;;
28170;SDS011;15458;53.346;-1.688;2023-05-07T04:13:22;17.95;;;9.90;;
28170;SDS011;15458;53.346;-1.688;2023-05-07T04:15:48;18.17;;;10.52;;
28170;SDS011;15458;53.346;-1.688;2023-05-07T04:18:14;20.48;;;10.60;;
28170;SDS011;15458;53.346;-1.688;2023-05-07T04:20:40;17.65;;;10.07;;
28170;SDS011;15458;53.346;-1.688;2023-05-07T04:23:06;20.38;;;9.80;;
28170;SDS011;15458;53.346;-1.688;2023-05-07T04:25:32;17.25;;;9.98;;
28170;SDS011;15458;53.346;-1.688;2023-05-07T04:27:58;17.30;;;10.27;;
28170;SDS011;15458;53.346;-1.688;2023-05-07T04:30:23;14.52;;;9.43;;
28170;SDS011;15458;53.346;-1.688;2023-05-07T04:32:50;17.50;;;10.77;;
28170;SDS011;15458;53.346;-1.688;2023-05-07T04:35:15;18.30;;;9.77;;
28170;SDS011;15458;53.346;-1.688;2023-05-07T04:37:42;16.58;;;10.02;;
28170;SDS011;15458;53.346;-1.688;2023-05-07T04:40:07;15.57;;;9.75;;
28170;SDS011;15458;53.346;-1.688;2023-05-07T04:42:33;17.42;;;9.88;;
28170;SDS011;15458;53.346;-1.688;2023-05-07T04:44:59;14.98;;;9.10;;
28170;SDS011;15458;53.346;-1.688;2023-05-07T04:47:26;19.77;;;9.93;;
28170;SDS011;15458;53.346;-1.688;2023-05-07T04:49:51;14.90;;;8.52;;
28170;SDS011;15458;53.346;-1.688;2023-05-07T04:52:17;15.27;;;8.57;;
28170;SDS011;15458;53.346;-1.688;2023-05-07T04:54:43;14.80;;;8.20;;
28170;SDS011;15458;53.346;-1.688;2023-05-07T04:57:11;13.57;;;9.00;;
28170;SDS011;15458;53.346;-1.688;2023-05-07T04:59:37;19.80;;;8.18;;
28170;SDS011;15458;53.346;-1.688;2023-05-07T05:02:02;15.40;;;8.68;;
28170;SDS011;15458;53.346;-1.688;2023-05-07T05:04:29;13.07;;;7.65;;
28170;SDS011;15458;53.346;-1.688;2023-05-07T05:06:55;13.98;;;8.05;;
28170;SDS011;15458;53.346;-1.688;2023-05-07T05:09:21;13.50;;;7.68;;
28170;SDS011;15458;53.346;-1.688;2023-05-07T05:11:46;14.68;;;8.93;;
28170;SDS011;15458;53.346;-1.688;2023-05-07T05:14:12;15.90;;;8.48;;
28170;SDS011;15458;53.346;-1.688;2023-05-07T05:16:38;17.15;;;8.05;;
28170;SDS011;15458;53.346;-1.688;2023-05-07T05:19:03;13.75;;;7.90;;
28170;SDS011;15458;53.346;-1.688;2023-05-07T05:21:29;18.27;;;9.50;;
28170;SDS011;15458;53.346;-1.688;2023-05-07T05:23:55;17.38;;;9.60;;
28170;SDS011;15458;53.346;-1.688;2023-05-07T05:26:21;19.00;;;10.05;;
28170;SDS011;15458;53.346;-1.688;2023-05-07T05:28:46;18.27;;;11.23;;
28170;SDS011;15458;53.346;-1.688;2023-05-07T05:31:12;18.73;;;9.82;;
28170;SDS011;15458;53.346;-1.688;2023-05-07T05:33:39;20.67;;;10.30;;
28170;SDS011;15458;53.346;-1.688;2023-05-07T05:36:05;18.33;;;10.02;;
28170;SDS011;15458;53.346;-1.688;2023-05-07T05:38:31;17.80;;;9.88;;
28170;SDS011;15458;53.346;-1.688;2023-05-07T05:40:57;19.45;;;10.52;;
28170;SDS011;15458;53.346;-1.688;2023-05-07T05:43:22;18.10;;;10.30;;
28170;SDS011;15458;53.346;-1.688;2023-05-07T05:45:48;19.35;;;10.50;;
28170;SDS011;15458;53.346;-1.688;2023-05-07T05:48:14;22.08;;;11.23;;
28170;SDS011;15458;53.346;-1.688;2023-05-07T05:50:39;18.67;;;10.20;;
28170;SDS011;15458;53.346;-1.688;2023-05-07T05:53:07;16.60;;;9.82;;
28170;SDS011;15458;53.346;-1.688;2023-05-07T05:55:32;19.65;;;9.65;;
28170;SDS011;15458;53.346;-1.688;2023-05-07T05:57:59;16.33;;;9.27;;
28170;SDS011;15458;53.346;-1.688;2023-05-07T06:00:28;17.58;;;9.80;;
28170;SDS011;15458;53.346;-1.688;2023-05-07T06:02:54;17.90;;;8.82;;
28170;SDS011;15458;53.346;-1.688;2023-05-07T06:05:20;19.55;;;9.30;;
28170;SDS011;15458;53.346;-1.688;2023-05-07T06:07:46;21.23;;;9.63;;
28170;SDS011;15458;53.346;-1.688;2023-05-07T06:10:11;16.23;;;9.10;;
28170;SDS011;15458;53.346;-1.688;2023-05-07T06:12:37;23.05;;;12.85;;
28170;SDS011;15458;53.346;-1.688;2023-05-07T06:15:03;24.77;;;13.07;;
28170;SDS011;15458;53.346;-1.688;2023-05-07T06:17:29;28.70;;;12.75;;
28170;SDS011;15458;53.346;-1.688;2023-05-07T06:19:55;21.50;;;12.68;;
28170;SDS011;15458;53.346;-1.688;2023-05-07T06:22:21;21.65;;;12.77;;
28170;SDS011;15458;53.346;-1.688;2023-05-07T06:24:47;22.88;;;13.30;;
28170;SDS011;15458;53.346;-1.688;2023-05-07T06:27:12;18.73;;;11.90;;
28170;SDS011;15458;53.346;-1.688;2023-05-07T06:29:38;22.25;;;12.15;;
28170;SDS011;15458;53.346;-1.688;2023-05-07T06:32:11;28.17;;;11.68;;
28170;SDS011;15458;53.346;-1.688;2023-05-07T06:34:38;17.17;;;10.23;;
28170;SDS011;15458;53.346;-1.688;2023-05-07T06:37:05;16.13;;;10.35;;
28170;SDS011;15458;53.346;-1.688;2023-05-07T06:39:31;21.92;;;11.60;;
28170;SDS011;15458;53.346;-1.688;2023-05-07T06:41:57;18.58;;;11.18;;
28170;SDS011;15458;53.346;-1.688;2023-05-07T06:44:23;16.63;;;10.40;;
28170;SDS011;15458;53.346;-1.688;2023-05-07T06:46:49;17.30;;;11.30;;
28170;SDS011;15458;53.346;-1.688;2023-05-07T06:49:15;18.88;;;11.82;;
28170;SDS011;15458;53.346;-1.688;2023-05-07T06:51:40;21.10;;;12.35;;
28170;SDS011;15458;53.346;-1.688;2023-05-07T06:54:06;19.50;;;11.05;;
28170;SDS011;15458;53.346;-1.688;2023-05-07T06:56:32;19.05;;;9.93;;
28170;SDS011;15458;53.346;-1.688;2023-05-07T06:59:02;22.52;;;10.93;;
28170;SDS011;15458;53.346;-1.688;2023-05-07T07:01:28;17.88;;;10.63;;
28170;SDS011;15458;53.346;-1.688;2023-05-07T07:03:54;20.30;;;10.75;;
28170;SDS011;15458;53.346;-1.688;2023-05-07T07:06:20;21.02;;;12.18;;
28170;SDS011;15458;53.346;-1.688;2023-05-07T07:08:45;19.88;;;11.32;;
28170;SDS011;15458;53.346;-1.688;2023-05-07T07:11:11;21.55;;;12.10;;
28170;SDS011;15458;53.346;-1.688;2023-05-07T07:13:37;23.95;;;12.88;;
28170;SDS011;15458;53.346;-1.688;2023-05-07T07:16:03;21.38;;;11.95;;
28170;SDS011;15458;53.346;-1.688;2023-05-07T07:18:28;21.40;;;13.50;;
28170;SDS011;15458;53.346;-1.688;2023-05-07T07:20:54;19.80;;;11.25;;
28170;SDS011;15458;53.346;-1.688;2023-05-07T07:23:20;20.50;;;11.52;;
28170;SDS011;15458;53.346;-1.688;2023-05-07T07:25:45;15.15;;;9.13;;
28170;SDS011;15458;53.346;-1.688;2023-05-07T07:28:12;17.25;;;11.02;;
28170;SDS011;15458;53.346;-1.688;2023-05-07T07:30:38;17.63;;;10.45;;
28170;SDS011;15458;53.346;-1.688;2023-05-07T07:33:04;17.65;;;11.32;;
28170;SDS011;15458;53.346;-1.688;2023-05-07T07:35:30;19.50;;;10.70;;
28170;SDS011;15458;53.346;-1.688;2023-05-07T07:37:58;16.63;;;10.32;;
28170;SDS011;15458;53.346;-1.688;2023-05-07T07:40:25;17.33;;;9.23;;
28170;SDS011;15458;53.346;-1.688;2023-05-07T07:42:51;17.27;;;9.18;;
28170;SDS011;15458;53.346;-1.688;2023-05-07T07:45:17;16.83;;;9.80;;
28170;SDS011;15458;53.346;-1.688;2023-05-07T07:47:43;16.17;;;9.15;;
28170;SDS011;15458;53.346;-1.688;2023-05-07T07:50:09;16.20;;;10.32;;
28170;SDS011;15458;53.346;-1.688;2023-05-07T07:52:35;15.63;;;8.70;;
28170;SDS011;15458;53.346;-1.688;2023-05-07T07:55:01;14.40;;;9.18;;
28170;SDS011;15458;53.346;-1.688;2023-05-07T07:57:27;16.45;;;9.85;;
28170;SDS011;15458;53.346;-1.688;2023-05-07T07:59:52;16.73;;;10.02;;
28170;SDS011;15458;53.346;-1.688;2023-05-07T08:02:18;18.73;;;11.88;;
28170;SDS011;15458;53.346;-1.688;2023-05-07T08:04:43;22.75;;;11.93;;
28170;SDS011;15458;53.346;-1.688;2023-05-07T08:07:09;26.33;;;12.98;;
28170;SDS011;15458;53.346;-1.688;2023-05-07T08:09:36;23.10;;;13.15;;
28170;SDS011;15458;53.346;-1.688;2023-05-07T08:12:03;23.70;;;13.43;;
28170;SDS011;15458;53.346;-1.688;2023-05-07T08:14:29;25.33;;;13.15;;
28170;SDS011;15458;53.346;-1.688;2023-05-07T08:16:55;23.35;;;12.98;;
28170;SDS011;15458;53.346;-1.688;2023-05-07T08:19:20;28.10;;;13.45;;
28170;SDS011;15458;53.346;-1.688;2023-05-07T08:21:47;20.55;;;11.82;;
28170;SDS011;15458;53.346;-1.688;2023-05-07T08:24:14;20.70;;;11.48;;
28170;SDS011;15458;53.346;-1.688;2023-05-07T08:26:40;24.05;;;12.55;;
28170;SDS011;15458;53.346;-1.688;2023-05-07T08:29:06;24.08;;;12.60;;
28170;SDS011;15458;53.346;-1.688;2023-05-07T08:31:32;23.27;;;13.23;;
28170;SDS011;15458;53.346;-1.688;2023-05-07T08:33:58;28.02;;;13.70;;
28170;SDS011;15458;53.346;-1.688;2023-05-07T08:36:24;27.20;;;12.48;;
28170;SDS011;15458;53.346;-1.688;2023-05-07T08:38:50;22.02;;;11.63;;
28170;SDS011;15458;53.346;-1.688;2023-05-07T08:41:16;25.48;;;13.10;;
28170;SDS011;15458;53.346;-1.688;2023-05-07T08:43:44;21.80;;;12.23;;
28170;SDS011;15458;53.346;-1.688;2023-05-07T08:46:15;20.73;;;11.35;;
28170;SDS011;15458;53.346;-1.688;2023-05-07T08:48:43;20.73;;;11.38;;
28170;SDS011;15458;53.346;-1.688;2023-05-07T08:51:12;23.63;;;10.82;;
28170;SDS011;15458;53.346;-1.688;2023-05-07T08:53:39;25.02;;;11.70;;
28170;SDS011;15458;53.346;-1.688;2023-05-07T08:56:07;17.45;;;10.45;;
28170;SDS011;15458;53.346;-1.688;2023-05-07T08:58:33;18.05;;;10.25;;
28170;SDS011;15458;53.346;-1.688;2023-05-07T09:01:00;15.98;;;9.18;;
28170;SDS011;15458;53.346;-1.688;2023-05-07T09:03:31;16.45;;;9.30;;
28170;SDS011;15458;53.346;-1.688;2023-05-07T09:05:57;16.13;;;8.25;;
28170;SDS011;15458;53.346;-1.688;2023-05-07T09:08:24;16.02;;;8.35;;
28170;SDS011;15458;53.346;-1.688;2023-05-07T09:10:51;16.15;;;8.57;;
28170;SDS011;15458;53.346;-1.688;2023-05-07T09:13:17;13.90;;;8.07;;
28170;SDS011;15458;53.346;-1.688;2023-05-07T09:15:43;16.15;;;7.88;;
28170;SDS011;15458;53.346;-1.688;2023-05-07T09:18:09;13.98;;;6.63;;
28170;SDS011;15458;53.346;-1.688;2023-05-07T09:20:39;10.82;;;5.97;;
28170;SDS011;15458;53.346;-1.688;2023-05-07T09:23:08;17.17;;;5.55;;
28170;SDS011;15458;53.346;-1.688;2023-05-07T09:25:34;15.77;;;5.80;;
28170;SDS011;15458;53.346;-1.688;2023-05-07T09:28:01;12.35;;;5.60;;
28170;SDS011;15458;53.346;-1.688;2023-05-07T09:30:28;12.57;;;5.38;;
28170;SDS011;15458;53.346;-1.688;2023-05-07T09:32:58;13.80;;;7.38;;
28170;SDS011;15458;53.346;-1.688;2023-05-07T09:35:25;14.70;;;5.97;;
28170;SDS011;15458;53.346;-1.688;2023-05-07T09:37:55;15.70;;;6.63;;
28170;SDS011;15458;53.346;-1.688;2023-05-07T09:40:23;11.50;;;6.15;;
28170;SDS011;15458;53.346;-1.688;2023-05-07T09:42:50;13.15;;;5.40;;
28170;SDS011;15458;53.346;-1.688;2023-05-07T09:45:21;10.93;;;5.55;;
28170;SDS011;15458;53.346;-1.688;2023-05-07T09:47:57;14.18;;;5.88;;
28170;SDS011;15458;53.346;-1.688;2023-05-07T09:50:25;12.05;;;5.78;;
28170;SDS011;15458;53.346;-1.688;2023-05-07T09:52:55;13.35;;;4.95;;
28170;SDS011;15458;53.346;-1.688;2023-05-07T09:55:22;10.23;;;4.88;;
28170;SDS011;15458;53.346;-1.688;2023-05-07T09:57:50;14.50;;;5.63;;
28170;SDS011;15458;53.346;-1.688;2023-05-07T10:00:18;9.95;;;5.03;;
28170;SDS011;15458;53.346;-1.688;2023-05-07T10:02:49;7.95;;;4.82;;
28170;SDS011;15458;53.346;-1.688;2023-05-07T10:05:20;13.18;;;4.97;;
28170;SDS011;15458;53.346;-1.688;2023-05-07T10:07:47;9.35;;;4.13;;
28170;SDS011;15458;53.346;-1.688;2023-05-07T10:10:14;7.88;;;4.05;;
28170;SDS011;15458;53.346;-1.688;2023-05-07T10:12:43;9.07;;;4.72;;
28170;SDS011;15458;53.346;-1.688;2023-05-07T10:15:10;8.80;;;4.82;;
28170;SDS011;15458;53.346;-1.688;2023-05-07T10:17:40;8.77;;;4.82;;
28170;SDS011;15458;53.346;-1.688;2023-05-07T10:20:06;8.93;;;4.10;;
28170;SDS011;15458;53.346;-1.688;2023-05-07T10:22:43;10.48;;;4.70;;
28170;SDS011;15458;53.346;-1.688;2023-05-07T10:25:23;12.45;;;3.70;;
28170;SDS011;15458;53.346;-1.688;2023-05-07T10:27:55;11.00;;;5.00;;
28170;SDS011;15458;53.346;-1.688;2023-05-07T10:33:29;9.60;;;4.22;;
28170;SDS011;15458;53.346;-1.688;2023-05-07T10:35:59;5.70;;;3.17;;
28170;SDS011;15458;53.346;-1.688;2023-05-07T10:38:27;9.55;;;3.65;;
28170;SDS011;15458;53.346;-1.688;2023-05-07T10:40:53;9.02;;;3.80;;
28170;SDS011;15458;53.346;-1.688;2023-05-07T10:43:20;6.90;;;3.38;;
28170;SDS011;15458;53.346;-1.688;2023-05-07T10:51:25;9.07;;;3.72;;
28170;SDS011;15458;53.346;-1.688;2023-05-07T10:56:36;9.75;;;3.47;;
28170;SDS011;15458;53.346;-1.688;2023-05-07T11:01:59;7.50;;;2.60;;
28170;SDS011;15458;53.346;-1.688;2023-05-07T11:04:31;9.25;;;2.70;;
28170;SDS011;15458;53.346;-1.688;2023-05-07T11:12:16;5.53;;;2.10;;
28170;SDS011;15458;53.346;-1.688;2023-05-07T11:14:42;4.43;;;1.90;;
28170;SDS011;15458;53.346;-1.688;2023-05-07T11:17:09;5.80;;;1.90;;
28170;SDS011;15458;53.346;-1.688;2023-05-07T11:19:53;8.32;;;2.15;;
28170;SDS011;15458;53.346;-1.688;2023-05-07T11:24:59;4.90;;;2.15;;
28170;SDS011;15458;53.346;-1.688;2023-05-07T11:27:25;6.45;;;2.25;;
28170;SDS011;15458;53.346;-1.688;2023-05-07T11:29:52;8.48;;;2.88;;
28170;SDS011;15458;53.346;-1.688;2023-05-07T11:32:31;8.32;;;3.03;;
28170;SDS011;15458;53.346;-1.688;2023-05-07T11:34:58;5.95;;;2.20;;
28170;SDS011;15458;53.346;-1.688;2023-05-07T11:37:25;5.90;;;1.98;;
28170;SDS011;15458;53.346;-1.688;2023-05-07T11:40:05;6.50;;;2.42;;
28170;SDS011;15458;53.346;-1.688;2023-05-07T11:42:33;5.40;;;2.42;;
28170;SDS011;15458;53.346;-1.688;2023-05-07T11:45:00;10.73;;;3.08;;
28170;SDS011;15458;53.346;-1.688;2023-05-07T11:47:26;9.93;;;2.20;;
28170;SDS011;15458;53.346;-1.688;2023-05-07T11:49:55;6.88;;;2.05;;
28170;SDS011;15458;53.346;-1.688;2023-05-07T11:52:22;4.22;;;1.50;;
28170;SDS011;15458;53.346;-1.688;2023-05-07T11:54:52;6.28;;;1.70;;
28170;SDS011;15458;53.346;-1.688;2023-05-07T11:57:20;7.35;;;2.22;;
28170;SDS011;15458;53.346;-1.688;2023-05-07T11:59:46;8.00;;;2.20;;
28170;SDS011;15458;53.346;-1.688;2023-05-07T12:02:15;5.53;;;1.63;;
28170;SDS011;15458;53.346;-1.688;2023-05-07T12:04:42;5.43;;;2.28;;
28170;SDS011;15458;53.346;-1.688;2023-05-07T12:07:11;6.82;;;1.98;;
28170;SDS011;15458;53.346;-1.688;2023-05-07T12:09:41;8.85;;;2.00;;
28170;SDS011;15458;53.346;-1.688;2023-05-07T12:12:07;5.20;;;1.85;;
28170;SDS011;15458;53.346;-1.688;2023-05-07T12:14:39;5.10;;;1.77;;
28170;SDS011;15458;53.346;-1.688;2023-05-07T12:19:32;5.22;;;1.70;;
28170;SDS011;15458;53.346;-1.688;2023-05-07T12:22:01;15.63;;;1.80;;
28170;SDS011;15458;53.346;-1.688;2023-05-07T12:24:28;7.25;;;1.75;;
28170;SDS011;15458;53.346;-1.688;2023-05-07T12:26:53;6.95;;;1.67;;
28170;SDS011;15458;53.346;-1.688;2023-05-07T12:29:22;9.27;;;2.33;;
28170;SDS011;15458;53.346;-1.688;2023-05-07T12:31:49;8.27;;;1.90;;
28170;SDS011;15458;53.346;-1.688;2023-05-07T12:34:15;6.82;;;2.20;;
28170;SDS011;15458;53.346;-1.688;2023-05-07T12:36:41;6.03;;;1.90;;
28170;SDS011;15458;53.346;-1.688;2023-05-07T12:39:07;5.65;;;1.60;;
28170;SDS011;15458;53.346;-1.688;2023-05-07T12:41:55;4.95;;;1.70;;
28170;SDS011;15458;53.346;-1.688;2023-05-07T12:44:23;6.40;;;1.75;;
28170;SDS011;15458;53.346;-1.688;2023-05-07T12:47:02;5.18;;;1.80;;
28170;SDS011;15458;53.346;-1.688;2023-05-07T12:49:28;7.82;;;1.92;;
28170;SDS011;15458;53.346;-1.688;2023-05-07T12:51:53;4.82;;;1.85;;
28170;SDS011;15458;53.346;-1.688;2023-05-07T12:54:30;6.95;;;1.70;;
28170;SDS011;15458;53.346;-1.688;2023-05-07T12:57:07;10.85;;;2.05;;
28170;SDS011;15458;53.346;-1.688;2023-05-07T12:59:37;5.50;;;1.77;;
28170;SDS011;15458;53.346;-1.688;2023-05-07T13:02:04;5.80;;;1.65;;
28170;SDS011;15458;53.346;-1.688;2023-05-07T13:04:31;6.35;;;2.35;;
28170;SDS011;15458;53.346;-1.688;2023-05-07T13:06:56;8.02;;;1.92;;
28170;SDS011;15458;53.346;-1.688;2023-05-07T13:09:22;6.85;;;2.28;;
28170;SDS011;15458;53.346;-1.688;2023-05-07T13:11:48;5.60;;;2.05;;
28170;SDS011;15458;53.346;-1.688;2023-05-07T13:14:13;4.43;;;2.00;;
28170;SDS011;15458;53.346;-1.688;2023-05-07T13:16:40;4.97;;;1.90;;
28170;SDS011;15458;53.346;-1.688;2023-05-07T13:19:05;5.53;;;1.98;;
28170;SDS011;15458;53.346;-1.688;2023-05-07T13:21:31;7.88;;;1.65;;
28170;SDS011;15458;53.346;-1.688;2023-05-07T13:23:57;4.53;;;1.42;;
28170;SDS011;15458;53.346;-1.688;2023-05-07T13:26:24;5.57;;;1.73;;
28170;SDS011;15458;53.346;-1.688;2023-05-07T13:28:50;4.72;;;1.58;;
28170;SDS011;15458;53.346;-1.688;2023-05-07T13:31:16;7.65;;;2.10;;
28170;SDS011;15458;53.346;-1.688;2023-05-07T13:33:43;4.38;;;1.45;;
28170;SDS011;15458;53.346;-1.688;2023-05-07T13:36:08;7.43;;;2.30;;
28170;SDS011;15458;53.346;-1.688;2023-05-07T13:38:34;4.28;;;1.67;;
28170;SDS011;15458;53.346;-1.688;2023-05-07T13:41:02;6.47;;;2.00;;
28170;SDS011;15458;53.346;-1.688;2023-05-07T13:43:28;3.78;;;1.50;;
28170;SDS011;15458;53.346;-1.688;2023-05-07T13:45:54;3.88;;;1.80;;
28170;SDS011;15458;53.346;-1.688;2023-05-07T13:48:20;6.60;;;2.40;;
28170;SDS011;15458;53.346;-1.688;2023-05-07T13:50:45;4.95;;;1.60;;
28170;SDS011;15458;53.346;-1.688;2023-05-07T13:53:11;10.00;;;1.98;;
28170;SDS011;15458;53.346;-1.688;2023-05-07T13:55:37;3.53;;;1.55;;
28170;SDS011;15458;53.346;-1.688;2023-05-07T13:58:02;6.03;;;1.88;;
28170;SDS011;15458;53.346;-1.688;2023-05-07T14:00:28;4.82;;;1.50;;
28170;SDS011;15458;53.346;-1.688;2023-05-07T14:02:55;7.15;;;1.80;;
28170;SDS011;15458;53.346;-1.688;2023-05-07T14:05:21;4.68;;;1.83;;
28170;SDS011;15458;53.346;-1.688;2023-05-07T14:10:17;6.97;;;2.15;;
28170;SDS011;15458;53.346;-1.688;2023-05-07T14:12:43;5.25;;;1.85;;
28170;SDS011;15458;53.346;-1.688;2023-05-07T14:15:09;9.18;;;2.50;;
28170;SDS011;15458;53.346;-1.688;2023-05-07T14:17:35;4.82;;;2.08;;
28170;SDS011;15458;53.346;-1.688;2023-05-07T14:20:01;6.53;;;1.95;;
28170;SDS011;15458;53.346;-1.688;2023-05-07T14:22:27;8.27;;;2.50;;
28170;SDS011;15458;53.346;-1.688;2023-05-07T14:24:53;5.93;;;2.67;;
28170;SDS011;15458;53.346;-1.688;2023-05-07T14:27:18;9.63;;;3.17;;
28170;SDS011;15458;53.346;-1.688;2023-05-07T14:29:44;4.80;;;2.17;;
28170;SDS011;15458;53.346;-1.688;2023-05-07T14:32:10;3.50;;;2.05;;
28170;SDS011;15458;53.346;-1.688;2023-05-07T14:34:36;6.75;;;2.95;;
28170;SDS011;15458;53.346;-1.688;2023-05-07T14:37:02;6.00;;;2.05;;
28170;SDS011;15458;53.346;-1.688;2023-05-07T14:39:28;5.85;;;2.78;;
28170;SDS011;15458;53.346;-1.688;2023-05-07T14:41:54;6.75;;;2.50;;
28170;SDS011;15458;53.346;-1.688;2023-05-07T14:44:21;6.80;;;2.58;;
28170;SDS011;15458;53.346;-1.688;2023-05-07T14:46:46;7.22;;;2.38;;